Time;durP1;ratioP1;P1;durP2;ratioP2;P2;SDS_P1;SDS_P2;PMS_P1;PMS_P2;Temp;Humidity;BMP_temperature;BMP_pressure;BME280_temperature;BME280_humidity;BME280_pressure;Samples;Min_cycle;Max_cycle;Signal;HPM_P1;HPM_P2
2021/05/26 00:02:01;;;;;;;2.90;2.70;;;;;;;10.84;37.04;100812.38;4963162;28;97371;-72
2021/05/26 00:04:30;;;;;;;2.63;2.43;;;;;;;10.90;37.09;100812.50;4960541;28;97579;-72
2021/05/26 00:06:57;;;;;;;2.83;2.63;;;;;;;10.98;37.19;100816.19;4963366;28;96860;-72
2021/05/26 00:09:25;;;;;;;2.67;2.20;;;;;;;10.94;36.75;100814.38;4963293;28;97681;-71
2021/05/26 00:11:53;;;;;;;2.58;2.10;;;;;;;10.91;36.63;100809.84;4965821;28;97465;-72
2021/05/26 00:14:21;;;;;;;2.00;2.00;;;;;;;10.92;36.71;100808.09;4962957;28;99020;-71
2021/05/26 00:16:49;;;;;;;2.65;2.10;;;;;;;10.94;36.53;100801.06;4963843;28;98354;-72
2021/05/26 00:19:17;;;;;;;2.10;1.98;;;;;;;10.96;36.53;100812.59;4964004;28;97475;-72
2021/05/26 00:21:45;;;;;;;2.30;2.10;;;;;;;10.99;36.33;100804.69;4964168;28;97792;-72
2021/05/26 00:24:13;;;;;;;2.92;2.70;;;;;;;10.99;36.45;100810.03;4963423;28;97873;-72
2021/05/26 00:26:41;;;;;;;2.63;2.53;;;;;;;10.98;36.40;100800.22;4963857;28;98180;-72
2021/05/26 00:29:08;;;;;;;2.20;2.10;;;;;;;10.99;36.05;100802.94;4963481;28;97780;-72
2021/05/26 00:31:37;;;;;;;2.05;2.05;;;;;;;11.03;36.14;100802.09;4963406;28;97016;-72
2021/05/26 00:34:05;;;;;;;2.13;2.13;;;;;;;11.02;36.19;100797.66;4963731;28;98972;-72
2021/05/26 00:36:33;;;;;;;2.60;2.13;;;;;;;11.01;36.09;100802.97;4963402;28;98006;-72
2021/05/26 00:39:05;;;;;;;3.05;2.40;;;;;;;10.97;36.77;100801.09;4962897;28;97336;-71
2021/05/26 00:41:33;;;;;;;2.53;2.33;;;;;;;11.06;36.50;100798.63;4963725;28;97070;-72
2021/05/26 00:44:01;;;;;;;2.70;2.60;;;;;;;11.03;36.39;100791.44;4964337;28;100581;-72
2021/05/26 00:46:28;;;;;;;2.15;2.15;;;;;;;11.02;36.32;100784.34;4962640;28;97158;-72
2021/05/26 00:48:56;;;;;;;2.60;2.50;;;;;;;11.02;36.36;100792.34;4964124;28;97033;-72
2021/05/26 00:51:25;;;;;;;2.70;2.45;;;;;;;10.98;36.80;100787.81;4961908;28;96983;-72
2021/05/26 00:53:54;;;;;;;2.40;2.30;;;;;;;11.02;36.56;100781.69;4962791;28;99992;-72
2021/05/26 00:56:22;;;;;;;2.50;2.40;;;;;;;10.97;36.35;100788.69;4963608;28;98921;-72
2021/05/26 00:58:50;;;;;;;3.75;2.50;;;;;;;10.87;36.52;100778.72;4961433;28;97609;-72
2021/05/26 01:01:18;;;;;;;2.47;2.38;;;;;;;10.87;36.59;100785.78;4964675;28;97288;-72
2021/05/26 01:03:47;;;;;;;2.58;2.47;;;;;;;10.85;36.71;100783.09;4962517;28;97943;-72
2021/05/26 01:06:15;;;;;;;2.42;2.33;;;;;;;10.87;36.34;100783.13;4963022;28;100306;-72
2021/05/26 01:08:44;;;;;;;2.58;2.47;;;;;;;10.92;36.50;100782.34;4961560;28;97574;-72
2021/05/26 01:11:12;;;;;;;2.80;2.70;;;;;;;10.94;36.49;100783.28;4964033;28;97502;-72
2021/05/26 01:13:40;;;;;;;3.30;2.90;;;;;;;10.94;36.56;100777.09;4962171;28;97781;-72
2021/05/26 01:16:08;;;;;;;3.03;2.80;;;;;;;10.97;36.96;100779.78;4961801;28;97781;-72
2021/05/26 01:18:37;;;;;;;3.30;3.10;;;;;;;11.04;36.96;100776.38;4977217;28;97021;-72
2021/05/26 01:21:12;;;;;;;3.60;3.30;;;;;;;11.06;37.18;100774.66;4961316;28;97612;-72
2021/05/26 01:23:41;;;;;;;3.60;3.40;;;;;;;11.09;37.34;100780.03;4962680;28;98303;-72
2021/05/26 01:26:10;;;;;;;2.95;2.85;;;;;;;11.14;37.31;100773.03;4961454;28;97848;-73
2021/05/26 01:28:39;;;;;;;2.80;2.70;;;;;;;11.16;37.10;100779.25;4963515;28;96829;-73
2021/05/26 01:31:13;;;;;;;2.70;2.50;;;;;;;11.11;36.84;100775.63;4963972;28;97113;-73
2021/05/26 01:33:41;;;;;;;2.97;2.80;;;;;;;11.11;37.18;100771.19;4976933;28;97814;-73
2021/05/26 01:36:34;;;;;;;3.88;3.20;;;;;;;11.12;37.18;100777.44;4960490;28;98942;-73
2021/05/26 01:39:06;;;;;;;3.47;3.28;;;;;;;11.13;37.34;100776.56;4962279;28;97525;-73
2021/05/26 01:41:33;;;;;;;3.05;2.95;;;;;;;11.17;37.40;100773.09;4961476;28;98121;-72
2021/05/26 01:44:03;;;;;;;4.43;2.72;;;;;;;11.24;36.90;100777.66;4961366;28;97817;-73
2021/05/26 01:46:31;;;;;;;3.40;3.20;;;;;;;11.22;37.42;100779.38;4960832;28;97952;-73
2021/05/26 01:48:59;;;;;;;3.47;3.00;;;;;;;11.21;37.11;100769.63;4961484;28;96992;-73
2021/05/26 01:51:27;;;;;;;3.88;3.58;;;;;;;11.22;37.42;100768.72;4961717;28;97403;-73
2021/05/26 01:53:56;;;;;;;3.03;2.92;;;;;;;11.27;37.07;100771.50;4961005;28;101249;-72
2021/05/26 01:56:29;;;;;;;3.10;3.00;;;;;;;11.26;36.96;100767.91;4962004;28;98309;-73
2021/05/26 01:59:07;;;;;;;3.28;3.00;;;;;;;11.28;36.91;100765.28;4963065;28;97360;-72
2021/05/26 02:01:35;;;;;;;3.05;2.85;;;;;;;11.23;36.84;100768.75;4960915;28;96869;-73
2021/05/26 02:04:07;;;;;;;3.63;3.33;;;;;;;11.22;37.17;100771.41;4959942;28;98245;-73
2021/05/26 02:06:35;;;;;;;3.28;2.88;;;;;;;11.20;37.02;100773.13;4960932;28;99132;-74
2021/05/26 02:09:03;;;;;;;2.65;2.55;;;;;;;11.16;36.97;100765.94;4961505;28;96791;-73
2021/05/26 02:14:21;;;;;;;2.70;2.60;;;;;;;11.06;37.00;100758.66;4961666;28;96810;-73
2021/05/26 02:16:53;;;;;;;3.67;3.43;;;;;;;11.04;37.29;100765.72;4961562;28;98794;-73
2021/05/26 02:19:22;;;;;;;4.15;3.85;;;;;;;11.05;37.47;100762.19;4958833;28;97855;-73
2021/05/26 02:21:51;;;;;;;3.30;3.10;;;;;;;11.12;37.36;100756.13;4960829;28;97040;-74
2021/05/26 02:24:20;;;;;;;3.08;2.90;;;;;;;11.12;37.19;100757.00;4961874;28;101507;-73
2021/05/26 02:26:49;;;;;;;6.07;3.20;;;;;;;11.08;37.14;100764.94;4963144;28;97993;-73
2021/05/26 02:29:16;;;;;;;3.25;3.05;;;;;;;11.04;36.93;100765.72;4963498;28;97927;-73
2021/05/26 02:31:45;;;;;;;3.10;2.85;;;;;;;10.97;36.98;100758.50;4964846;28;97229;-73
2021/05/26 02:34:14;;;;;;;3.70;3.00;;;;;;;10.95;36.97;100762.91;4963089;28;97969;-73
2021/05/26 02:36:42;;;;;;;3.28;3.05;;;;;;;10.92;37.01;100762.84;4964332;28;98253;-72
2021/05/26 02:39:12;;;;;;;3.28;2.95;;;;;;;10.92;36.89;100768.16;4962730;28;96924;-72
2021/05/26 02:41:41;;;;;;;4.05;3.90;;;;;;;10.88;36.95;100755.66;4963301;28;98121;-72
2021/05/26 02:44:14;;;;;;;3.45;3.20;;;;;;;10.84;36.90;100760.03;4960655;28;98041;-72
2021/05/26 02:46:42;;;;;;;3.58;3.28;;;;;;;10.83;36.90;100760.88;4960749;28;97666;-73
2021/05/26 02:49:10;;;;;;;3.50;3.40;;;;;;;10.84;36.86;100760.03;4960999;28;96837;-73
2021/05/26 02:51:38;;;;;;;3.75;3.45;;;;;;;10.88;36.77;100755.66;4963073;28;97355;-73
2021/05/26 02:54:07;;;;;;;4.97;3.45;;;;;;;10.86;36.80;100744.09;4976527;28;98001;-72
2021/05/26 02:56:36;;;;;;;3.70;3.50;;;;;;;10.84;36.88;100745.81;4977779;28;99753;-73
2021/05/26 02:59:23;;;;;;;3.75;3.40;;;;;;;10.80;36.77;100746.63;4962908;28;96813;-73
2021/05/26 03:02:10;;;;;;;4.10;3.83;;;;;;;10.78;36.72;100748.34;4964913;28;97280;-72
2021/05/26 03:04:44;;;;;;;3.70;3.50;;;;;;;10.75;36.83;100748.28;4965014;28;99050;-73
2021/05/26 03:07:15;;;;;;;3.22;3.05;;;;;;;10.73;36.83;100742.94;4964933;28;102762;-73
2021/05/26 03:09:44;;;;;;;4.28;3.92;;;;;;;10.73;36.69;100745.63;4963250;28;97031;-73
2021/05/26 03:12:12;;;;;;;3.95;3.67;;;;;;;10.73;36.79;100748.28;4963443;28;97226;-73
2021/05/26 03:14:53;;;;;;;3.83;3.60;;;;;;;10.70;36.88;100739.34;4965823;28;98693;-72
2021/05/26 03:17:23;;;;;;;3.50;3.20;;;;;;;10.73;36.89;100739.38;4965012;28;98228;-72
2021/05/26 03:19:51;;;;;;;4.07;3.42;;;;;;;10.68;36.84;100741.97;4963279;28;97800;-72
2021/05/26 03:22:48;;;;;;;3.75;3.58;;;;;;;10.70;37.18;100742.88;4963871;28;97033;-72
2021/05/26 03:25:46;;;;;;;3.65;3.53;;;;;;;10.70;36.66;100737.53;4963943;28;99515;-73
2021/05/26 03:28:14;;;;;;;4.03;3.80;;;;;;;10.70;37.54;100750.84;4964068;28;98037;-73
2021/05/26 03:30:44;;;;;;;4.53;4.15;;;;;;;10.77;37.67;100741.25;4964459;28;98237;-73
2021/05/26 03:33:13;;;;;;;4.43;4.03;;;;;;;10.86;37.53;100741.41;4979480;28;97826;-72
2021/05/26 03:35:42;;;;;;;4.10;3.80;;;;;;;10.94;37.24;100734.50;4981540;28;99937;-72
2021/05/26 03:38:11;;;;;;;3.53;3.33;;;;;;;10.96;37.06;100732.72;4965615;28;97903;-72
2021/05/26 03:40:53;;;;;;;3.50;3.40;;;;;;;10.95;37.01;100723.88;4964819;28;98358;-72
2021/05/26 03:43:28;;;;;;;3.83;3.55;;;;;;;10.96;36.96;100727.41;4966514;28;97329;-72
2021/05/26 03:45:58;;;;;;;3.85;3.65;;;;;;;10.97;36.75;100724.78;4965776;28;97513;-73
2021/05/26 03:48:27;;;;;;;3.85;3.55;;;;;;;10.94;36.92;100734.50;4964215;28;98912;-72
2021/05/26 03:50:55;;;;;;;3.63;3.33;;;;;;;10.92;37.26;100730.91;4964111;28;97628;-72
2021/05/26 03:53:23;;;;;;;4.13;3.83;;;;;;;10.90;36.82;100730.84;4965206;28;96898;-72
2021/05/26 03:55:53;;;;;;;4.45;4.15;;;;;;;10.87;36.81;100722.81;4964109;28;97841;-72
2021/05/26 03:58:34;;;;;;;4.53;4.13;;;;;;;10.84;36.82;100728.09;4965747;28;97746;-72
2021/05/26 04:01:10;;;;;;;4.45;4.13;;;;;;;10.81;36.93;100733.31;4984600;28;97450;-71
2021/05/26 04:03:38;;;;;;;4.10;3.80;;;;;;;10.77;36.83;100723.53;4965307;28;98006;-72
2021/05/26 04:06:10;;;;;;;4.20;3.90;;;;;;;10.80;36.84;100720.91;4961335;28;99168;-71
2021/05/26 04:08:38;;;;;;;4.20;4.00;;;;;;;10.78;36.72;100725.28;4965137;28;97733;-72
2021/05/26 04:11:07;;;;;;;5.10;4.13;;;;;;;10.77;36.92;100726.19;4962949;28;96869;-71
2021/05/26 04:13:54;;;;;;;4.72;3.92;;;;;;;10.80;36.79;100730.66;4970195;28;97123;-71
2021/05/26 04:16:32;;;;;;;5.90;5.40;;;;;;;10.83;37.28;100726.28;4967827;28;97127;-71
2021/05/26 04:19:11;;;;;;;4.95;4.65;;;;;;;10.92;37.29;100728.25;4966109;28;97804;-72
2021/05/26 04:21:39;;;;;;;5.55;4.88;;;;;;;11.00;37.09;100730.16;4964429;28;99110;-71
2021/05/26 04:24:08;;;;;;;4.57;4.20;;;;;;;11.01;36.73;100728.41;4966289;28;96939;-71
2021/05/26 04:26:37;;;;;;;4.53;4.13;;;;;;;11.01;36.66;100726.63;4968769;28;99245;-71
2021/05/26 04:29:09;;;;;;;4.60;4.20;;;;;;;11.03;36.60;100724.88;4974411;28;98013;-71
2021/05/26 04:31:44;;;;;;;4.60;4.20;;;;;;;11.04;36.56;100728.44;4967741;28;96801;-71
2021/05/26 04:34:12;;;;;;;4.32;4.13;;;;;;;11.02;36.71;100724.84;4964743;28;97079;-71
2021/05/26 04:36:39;;;;;;;4.57;4.18;;;;;;;11.01;36.64;100723.09;4964956;28;97001;-71
2021/05/26 04:39:07;;;;;;;3.92;3.72;;;;;;;11.00;36.49;100718.59;4965200;28;97856;-72
2021/05/26 04:41:35;;;;;;;4.32;4.05;;;;;;;10.96;36.61;100712.31;4964064;28;97459;-72
2021/05/26 04:44:03;;;;;;;4.20;3.80;;;;;;;10.97;36.51;100722.13;4964158;28;96982;-71
2021/05/26 04:46:31;;;;;;;4.80;4.25;;;;;;;10.96;36.56;100711.41;4963280;28;99554;-71
2021/05/26 04:49:00;;;;;;;4.65;4.35;;;;;;;10.97;36.66;100715.91;4964302;28;97224;-71
2021/05/26 04:51:28;;;;;;;4.13;3.72;;;;;;;10.97;36.53;100718.56;4964283;28;96975;-71
2021/05/26 04:53:55;;;;;;;4.78;4.32;;;;;;;10.96;36.46;100716.75;4964420;28;96784;-71
2021/05/26 04:56:23;;;;;;;4.43;4.13;;;;;;;10.98;36.58;100720.34;4965025;28;97805;-71
2021/05/26 04:58:51;;;;;;;4.63;4.20;;;;;;;10.99;36.50;100719.50;4977061;28;97896;-72
2021/05/26 05:01:21;;;;;;;4.95;4.15;;;;;;;11.01;36.33;100710.63;4960903;28;97354;-71
2021/05/26 05:03:49;;;;;;;5.75;4.22;;;;;;;11.05;36.28;100723.16;4964422;28;96992;-71
2021/05/26 05:06:20;;;;;;;4.47;4.07;;;;;;;11.06;36.39;100722.28;4963153;28;97586;-71
2021/05/26 05:08:48;;;;;;;4.13;3.92;;;;;;;11.06;36.33;100724.97;4962819;28;96840;-72
2021/05/26 05:11:16;;;;;;;4.20;4.00;;;;;;;11.06;36.35;100719.63;4965037;28;98015;-72
2021/05/26 05:13:44;;;;;;;4.82;4.40;;;;;;;11.07;36.31;100725.81;4963115;28;97423;-71
2021/05/26 05:16:12;;;;;;;3.92;3.58;;;;;;;11.08;36.37;100725.88;4963090;28;97914;-72
2021/05/26 05:18:40;;;;;;;5.07;4.03;;;;;;;11.09;36.32;100724.09;4961475;28;98491;-72
2021/05/26 05:21:08;;;;;;;4.32;3.97;;;;;;;11.12;36.26;100724.16;4963855;28;97228;-71
2021/05/26 05:23:36;;;;;;;5.10;4.05;;;;;;;11.16;36.09;100726.00;4966476;28;96760;-71
2021/05/26 05:26:04;;;;;;;4.70;4.30;;;;;;;11.19;36.18;100721.66;4981348;28;98713;-72
2021/05/26 05:28:32;;;;;;;4.18;3.85;;;;;;;11.18;36.24;100725.16;4964059;28;98201;-72
2021/05/26 05:31:00;;;;;;;5.10;4.32;;;;;;;11.18;36.25;100724.25;4963426;28;96874;-72
2021/05/26 05:33:28;;;;;;;4.80;4.38;;;;;;;11.18;36.33;100716.25;4965462;28;96896;-72
2021/05/26 05:35:57;;;;;;;4.90;4.50;;;;;;;11.21;36.28;100719.00;4963573;28;100494;-72
2021/05/26 05:38:25;;;;;;;4.28;4.05;;;;;;;11.23;36.12;100727.94;4963329;28;97723;-72
2021/05/26 05:40:54;;;;;;;4.45;4.15;;;;;;;11.21;36.23;100719.88;4968304;28;96805;-71
2021/05/26 05:43:22;;;;;;;4.13;3.83;;;;;;;11.22;36.20;100712.78;4969736;28;97861;-71
2021/05/26 05:45:49;;;;;;;4.28;3.97;;;;;;;11.23;36.09;100712.81;4963038;28;97309;-72
2021/05/26 05:48:17;;;;;;;4.30;3.90;;;;;;;11.23;36.15;100727.03;4964198;28;97197;-70
2021/05/26 05:50:45;;;;;;;3.90;3.60;;;;;;;11.22;36.23;100720.78;4963518;28;96874;-71
2021/05/26 05:53:13;;;;;;;4.57;3.83;;;;;;;11.21;36.31;100724.34;4963296;28;97714;-71
2021/05/26 05:55:41;;;;;;;4.18;3.85;;;;;;;11.20;36.15;100717.19;4960303;28;99613;-71
2021/05/26 05:58:11;;;;;;;4.70;3.63;;;;;;;11.21;36.31;100719.88;4962728;28;97674;-71
2021/05/26 06:00:39;;;;;;;3.72;3.38;;;;;;;11.27;36.29;100716.44;4962739;28;97214;-70
2021/05/26 06:03:07;;;;;;;3.70;3.40;;;;;;;11.30;36.00;100716.50;4961843;28;97774;-70
2021/05/26 06:05:35;;;;;;;3.90;3.40;;;;;;;11.32;36.02;100714.81;4963048;28;100609;-72
2021/05/26 06:08:02;;;;;;;3.58;3.28;;;;;;;11.35;35.85;100721.91;4963010;28;97856;-71
2021/05/26 06:10:30;;;;;;;3.67;3.45;;;;;;;11.37;35.73;100710.44;4962047;28;97474;-72
2021/05/26 06:12:59;;;;;;;3.95;3.50;;;;;;;11.39;35.84;100711.34;4961921;28;97244;-71
2021/05/26 06:15:28;;;;;;;4.43;3.58;;;;;;;11.42;35.83;100719.38;4960412;28;97251;-71
2021/05/26 06:17:58;;;;;;;3.65;3.35;;;;;;;11.40;35.88;100704.25;4961360;28;97903;-71
2021/05/26 06:20:25;;;;;;;3.90;3.70;;;;;;;11.44;35.84;100699.00;4960207;28;96848;-71
2021/05/26 06:22:53;;;;;;;3.13;3.03;;;;;;;11.51;35.79;100707.97;4960484;28;97382;-72
2021/05/26 06:25:24;;;;;;;3.20;2.95;;;;;;;11.54;35.69;100708.94;4959822;28;97957;-72
2021/05/26 06:27:52;;;;;;;3.75;3.53;;;;;;;11.49;36.04;100693.75;4958207;28;98042;-72
2021/05/26 06:30:20;;;;;;;4.43;4.13;;;;;;;11.61;35.79;100699.28;4957054;28;97393;-71
2021/05/26 06:32:49;;;;;;;3.70;3.30;;;;;;;11.67;35.58;100707.38;4953454;28;97434;-72
2021/05/26 06:35:16;;;;;;;3.30;3.00;;;;;;;11.65;35.51;100707.31;4958550;28;98915;-71
2021/05/26 06:37:44;;;;;;;8.13;3.55;;;;;;;11.66;36.00;100694.91;4953344;28;98340;-71
2021/05/26 06:40:13;;;;;;;6.03;3.83;;;;;;;11.72;36.02;100701.25;4954826;28;98690;-71
2021/05/26 06:42:43;;;;;;;4.53;3.13;;;;;;;11.81;36.07;100695.13;4960731;28;97894;-71
2021/05/26 06:45:13;;;;;;;4.25;3.70;;;;;;;11.90;35.99;100703.28;4962205;28;98015;-72
2021/05/26 06:47:41;;;;;;;5.40;3.20;;;;;;;11.98;35.95;100691.81;4963204;28;97962;-72
2021/05/26 06:50:11;;;;;;;6.65;3.60;;;;;;;12.03;35.68;100695.47;4961270;28;97547;-71
2021/05/26 06:52:39;;;;;;;6.35;5.20;;;;;;;12.20;35.40;100703.72;4940313;28;97150;-72
2021/05/26 06:55:10;;;;;;;4.50;3.00;;;;;;;12.19;35.17;100704.59;4961504;28;98793;-73
2021/05/26 06:57:38;;;;;;;3.40;3.03;;;;;;;12.20;35.25;100695.72;4963232;28;97756;-73
2021/05/26 07:00:07;;;;;;;6.50;3.25;;;;;;;12.23;35.39;100685.09;4960323;28;97608;-72
2021/05/26 07:02:35;;;;;;;3.20;2.67;;;;;;;12.37;35.06;100695.94;4962909;28;98092;-73
2021/05/26 07:05:04;;;;;;;3.63;2.80;;;;;;;12.36;34.87;100683.47;4958116;28;97852;-73
2021/05/26 07:07:32;;;;;;;3.03;2.70;;;;;;;12.38;34.84;100682.63;4963100;28;96920;-73
2021/05/26 07:10:00;;;;;;;2.63;2.50;;;;;;;12.44;34.57;100681.78;4961162;28;97270;-72
2021/05/26 07:12:28;;;;;;;4.00;2.50;;;;;;;12.49;34.55;100690.75;4962515;28;98659;-72
2021/05/26 07:14:56;;;;;;;4.25;3.05;;;;;;;12.42;34.59;100683.56;4974097;28;101062;-73
2021/05/26 07:17:24;;;;;;;4.10;2.83;;;;;;;12.44;34.64;100682.69;4962899;28;99437;-72
2021/05/26 07:19:51;;;;;;;4.40;2.70;;;;;;;12.49;34.45;100685.41;4960774;28;96971;-72
2021/05/26 07:22:19;;;;;;;3.03;2.53;;;;;;;12.54;34.45;100673.91;4963226;28;96812;-73
2021/05/26 07:24:48;;;;;;;4.20;2.50;;;;;;;12.66;34.32;100678.47;4966049;28;96831;-73
2021/05/26 07:27:16;;;;;;;3.07;2.80;;;;;;;12.65;34.26;100671.38;4964429;28;97744;-72
2021/05/26 07:29:43;;;;;;;3.47;3.17;;;;;;;12.70;33.93;100670.53;4962591;28;97047;-73
2021/05/26 07:32:11;;;;;;;4.25;2.33;;;;;;;12.72;34.00;100668.78;4964036;28;96765;-73
2021/05/26 07:34:39;;;;;;;;;;;;;;;12.81;33.30;100670.63;4965522;28;97012;-73
2021/05/26 07:37:06;;;;;;;;;;;;;;;12.82;33.10;100673.31;4964172;28;96811;-72
2021/05/26 07:39:35;;;;;;;;;;;;;;;12.82;33.10;100664.44;4961199;28;97327;-73
2021/05/26 07:42:06;;;;;;;3.97;2.20;;;;;;;12.82;33.63;100654.63;4961841;28;96964;-72
2021/05/26 07:44:35;;;;;;;2.67;2.58;;;;;;;12.85;33.63;100656.44;4960371;28;101264;-72
2021/05/26 07:47:03;;;;;;;4.18;2.80;;;;;;;12.79;33.28;100659.03;4958782;28;98371;-72
2021/05/26 07:49:31;;;;;;;3.30;2.87;;;;;;;12.83;32.97;100655.53;4960300;28;97103;-72
2021/05/26 07:52:03;;;;;;;3.95;3.20;;;;;;;12.86;32.89;100648.44;4960271;28;98723;-73
2021/05/26 07:54:31;;;;;;;3.75;2.95;;;;;;;12.96;32.62;100662.78;4960615;28;98068;-72
2021/05/26 07:57:00;;;;;;;7.22;3.20;;;;;;;13.01;32.42;100663.75;4961602;28;97753;-72
2021/05/26 07:59:28;;;;;;;4.90;2.73;;;;;;;13.01;32.36;100661.97;4960847;28;97176;-72
2021/05/26 08:01:56;;;;;;;5.72;2.90;;;;;;;13.07;32.18;100658.47;4960932;28;97072;-72
2021/05/26 08:04:24;;;;;;;5.65;3.30;;;;;;;13.08;32.15;100653.13;4960023;28;101015;-72
2021/05/26 08:06:52;;;;;;;4.13;3.03;;;;;;;13.14;32.06;100673.66;4959725;28;99686;-71
2021/05/26 08:09:21;;;;;;;4.57;2.80;;;;;;;13.15;32.05;100641.63;4961840;28;97541;-72
2021/05/26 08:11:49;;;;;;;5.63;3.08;;;;;;;13.15;32.03;100638.03;4960098;28;97514;-72
2021/05/26 08:14:16;;;;;;;3.28;3.03;;;;;;;13.15;32.27;100648.72;4961293;28;97426;-72
2021/05/26 08:16:45;;;;;;;5.10;3.10;;;;;;;13.20;32.11;100640.75;4961951;28;98088;-73
2021/05/26 08:19:13;;;;;;;3.80;3.10;;;;;;;13.22;32.26;100645.25;4960537;28;97915;-72
2021/05/26 08:21:41;;;;;;;3.30;2.72;;;;;;;13.22;32.04;100647.94;4962816;28;97436;-72
2021/05/26 08:24:15;;;;;;;5.60;3.13;;;;;;;13.29;32.04;100649.75;4960806;28;97480;-72
2021/05/26 08:26:43;;;;;;;5.93;2.90;;;;;;;13.38;32.01;100654.28;4961612;28;97824;-72
2021/05/26 08:29:11;;;;;;;5.20;2.60;;;;;;;13.45;31.53;100643.63;4962321;28;97475;-72
2021/05/26 08:31:40;;;;;;;3.30;2.90;;;;;;;13.51;31.77;100633.00;4962848;28;96955;-72
2021/05/26 08:34:09;;;;;;;3.55;2.97;;;;;;;13.55;31.54;100637.47;4962315;28;97890;-72
2021/05/26 08:36:37;;;;;;;4.75;3.08;;;;;;;13.55;31.46;100629.44;4963250;28;97664;-72
2021/05/26 08:39:05;;;;;;;4.40;2.80;;;;;;;13.59;31.42;100625.91;4964066;28;97922;-72
2021/05/26 08:41:33;;;;;;;5.10;3.00;;;;;;;13.64;31.34;100625.94;4963219;28;98004;-72
2021/05/26 08:44:05;;;;;;;2.73;2.50;;;;;;;13.66;31.21;100619.69;4962066;28;98830;-72
2021/05/26 08:46:36;;;;;;;5.93;2.58;;;;;;;13.69;31.06;100624.19;4960784;28;98199;-72
2021/05/26 08:49:04;;;;;;;3.60;2.97;;;;;;;13.68;30.75;100619.72;4954207;28;97746;-72
2021/05/26 08:51:33;;;;;;;7.00;2.90;;;;;;;13.72;30.83;100622.44;4961729;28;98226;-72
2021/05/26 08:54:01;;;;;;;4.63;2.70;;;;;;;13.74;30.61;100615.31;4962422;28;97202;-72
2021/05/26 08:56:29;;;;;;;4.15;2.90;;;;;;;13.78;30.72;100611.78;4955015;28;98934;-71
2021/05/26 08:59:00;;;;;;;4.05;2.35;;;;;;;13.82;30.65;100616.25;4958679;28;96976;-72
2021/05/26 09:01:28;;;;;;;4.30;2.45;;;;;;;13.86;30.43;100610.03;4960249;28;97676;-71
2021/05/26 09:03:56;;;;;;;3.63;2.53;;;;;;;13.86;30.53;100611.84;4956300;28;99240;-72
2021/05/26 09:06:42;;;;;;;3.13;2.38;;;;;;;13.86;30.37;100610.03;4959823;28;100024;-72
2021/05/26 09:09:11;;;;;;;4.30;2.60;;;;;;;13.85;30.42;100602.94;4959789;28;96887;-70
2021/05/26 09:11:43;;;;;;;3.67;2.50;;;;;;;13.91;30.59;100596.72;4960360;28;97733;-70
2021/05/26 09:14:11;;;;;;;3.35;2.90;;;;;;;13.95;30.59;100601.19;4956800;28;98846;-70
2021/05/26 09:16:40;;;;;;;6.18;2.80;;;;;;;13.95;30.52;100595.84;4958224;28;97994;-70
2021/05/26 09:19:09;;;;;;;3.45;2.58;;;;;;;13.94;30.42;100592.25;4956516;28;97869;-70
2021/05/26 09:21:39;;;;;;;5.72;3.00;;;;;;;13.98;30.44;100590.50;4955653;28;97833;-70
2021/05/26 09:24:28;;;;;;;2.72;2.30;;;;;;;14.08;30.67;100593.19;4958346;28;97432;-71
2021/05/26 09:26:58;;;;;;;4.40;2.67;;;;;;;14.14;30.88;100584.31;4957814;28;98332;-70
2021/05/26 09:29:27;;;;;;;3.03;2.40;;;;;;;14.21;31.09;100588.78;4960093;28;97035;-70
2021/05/26 09:32:10;;;;;;;3.33;2.58;;;;;;;14.25;31.22;100587.00;4960039;28;97679;-70
2021/05/26 09:34:38;;;;;;;3.55;2.50;;;;;;;14.30;31.26;100583.47;4944242;28;99697;-72
2021/05/26 09:37:06;;;;;;;6.43;2.53;;;;;;;14.36;31.11;100591.50;4959924;28;97946;-72
2021/05/26 09:39:52;;;;;;;4.60;2.45;;;;;;;14.47;31.04;100583.50;4958895;28;98055;-72
2021/05/26 09:42:28;;;;;;;3.75;2.50;;;;;;;14.53;30.83;100589.78;4956924;28;96951;-71
2021/05/26 09:45:11;;;;;;;3.97;2.33;;;;;;;14.60;30.41;100580.00;4955870;28;98689;-72
2021/05/26 09:47:40;;;;;;;2.60;2.23;;;;;;;14.65;30.26;100568.41;4960228;28;99178;-72
2021/05/26 09:50:23;;;;;;;3.28;2.40;;;;;;;14.64;30.25;100573.75;4958833;28;97053;-72
2021/05/26 09:52:55;;;;;;;4.43;2.10;;;;;;;14.64;30.03;100569.31;4958697;28;97135;-72
2021/05/26 09:55:25;;;;;;;6.07;2.35;;;;;;;14.67;30.07;100569.28;4957635;28;100657;-72
2021/05/26 09:57:53;;;;;;;3.40;2.40;;;;;;;14.67;30.04;100571.06;4955940;28;98722;-73
2021/05/26 10:00:21;;;;;;;3.40;2.33;;;;;;;14.73;30.17;100558.59;4957037;28;97685;-72
2021/05/26 10:02:50;;;;;;;3.83;2.57;;;;;;;14.82;30.17;100565.72;4959589;28;98606;-72
2021/05/26 10:05:19;;;;;;;4.65;2.53;;;;;;;14.85;29.65;100557.69;4953597;28;97751;-72
2021/05/26 10:08:07;;;;;;;3.65;1.95;;;;;;;14.85;29.63;100558.59;4957045;28;98186;-71
2021/05/26 10:10:41;;;;;;;3.45;2.40;;;;;;;14.89;29.03;100563.06;4957206;28;97337;-72
2021/05/26 10:13:14;;;;;;;3.93;2.40;;;;;;;14.88;29.10;100571.97;4958762;28;97956;-72
2021/05/26 10:15:42;;;;;;;2.67;2.30;;;;;;;14.85;29.11;100555.00;4958501;28;98034;-72
2021/05/26 10:18:10;;;;;;;4.05;2.30;;;;;;;14.84;29.39;100555.91;4958836;28;100540;-72
2021/05/26 10:20:39;;;;;;;2.78;2.13;;;;;;;14.87;29.28;100553.22;4959970;28;98399;-72
2021/05/26 10:23:08;;;;;;;3.83;2.30;;;;;;;14.89;29.62;100540.72;4960357;28;97708;-72
2021/05/26 10:25:43;;;;;;;2.63;2.23;;;;;;;14.90;29.33;100542.53;4960407;28;97914;-72
2021/05/26 10:28:25;;;;;;;2.47;2.38;;;;;;;14.91;29.30;100544.31;4960571;28;97857;-72
2021/05/26 10:30:53;;;;;;;1.98;1.88;;;;;;;14.92;29.06;100546.06;4959749;28;96882;-71
2021/05/26 10:33:21;;;;;;;2.33;1.90;;;;;;;14.95;29.23;100535.38;4955229;28;97988;-72
2021/05/26 10:35:57;;;;;;;2.28;2.00;;;;;;;14.99;29.23;100538.03;4955733;28;97842;-71
2021/05/26 10:38:25;;;;;;;2.10;1.90;;;;;;;15.07;28.99;100536.25;4954326;28;97868;-72
2021/05/26 10:40:56;;;;;;;2.22;2.00;;;;;;;15.17;29.50;100533.56;4958791;28;97826;-72
2021/05/26 10:43:50;;;;;;;2.67;1.73;;;;;;;15.26;28.73;100539.81;4957831;28;98232;-71
2021/05/26 10:46:35;;;;;;;2.38;1.98;;;;;;;15.30;28.30;100535.34;4956790;28;97979;-72
2021/05/26 10:49:05;;;;;;;2.13;1.80;;;;;;;15.31;28.37;100547.84;4959065;28;98966;-72
2021/05/26 10:52:09;;;;;;;1.80;1.70;;;;;;;15.30;27.87;100538.03;4953273;28;97298;-72
2021/05/26 10:55:02;;;;;;;5.77;2.00;;;;;;;15.31;27.66;100530.00;4958952;28;97708;-72
2021/05/26 10:57:32;;;;;;;2.10;1.85;;;;;;;15.37;27.74;100524.63;4957827;28;97838;-72
2021/05/26 11:00:28;;;;;;;2.03;1.93;;;;;;;15.45;27.46;100521.94;4958064;28;97833;-71
2021/05/26 11:03:41;;;;;;;2.13;2.00;;;;;;;15.55;27.36;100521.88;4957999;28;96843;-72
2021/05/26 11:06:36;;;;;;;3.10;1.80;;;;;;;15.65;27.51;100536.16;4958234;28;97856;-71
2021/05/26 11:09:07;;;;;;;2.30;1.97;;;;;;;15.67;27.49;100521.81;4957411;28;98285;-72
2021/05/26 11:11:49;;;;;;;1.93;1.83;;;;;;;15.64;26.98;100518.25;4958216;28;99953;-71
2021/05/26 11:14:35;;;;;;;2.40;2.20;;;;;;;15.65;27.37;100528.13;4955506;28;97463;-72
2021/05/26 11:17:31;;;;;;;2.77;1.80;;;;;;;15.70;27.56;100516.44;4951878;28;98910;-72
2021/05/26 11:20:19;;;;;;;2.22;1.60;;;;;;;15.75;27.58;100511.06;4950694;28;98341;-71
2021/05/26 11:22:48;;;;;;;2.55;1.80;;;;;;;15.77;27.44;100514.63;4954889;28;99057;-72
2021/05/26 11:25:17;;;;;;;2.17;1.95;;;;;;;15.84;27.38;100509.25;4954823;28;98168;-71
2021/05/26 11:27:52;;;;;;;2.80;1.70;;;;;;;15.87;27.22;100503.84;4960933;28;96849;-71
2021/05/26 11:30:26;;;;;;;3.80;1.90;;;;;;;15.89;26.77;100506.53;4955839;28;98140;-70
2021/05/26 11:32:58;;;;;;;2.85;2.40;;;;;;;15.91;27.21;100504.72;4950389;28;98635;-71
2021/05/26 11:35:26;;;;;;;2.65;1.80;;;;;;;15.95;27.25;100495.75;4956578;28;99103;-71
2021/05/26 11:37:54;;;;;;;1.90;1.80;;;;;;;16.01;27.04;100493.09;4962321;28;97232;-71
2021/05/26 11:40:25;;;;;;;1.77;1.67;;;;;;;16.08;26.97;100495.72;4962102;28;98198;-71
2021/05/26 11:42:54;;;;;;;2.38;1.73;;;;;;;16.04;26.42;100482.31;4963843;28;98391;-71
2021/05/26 11:45:24;;;;;;;1.80;1.70;;;;;;;16.06;26.43;100491.25;4964759;28;98205;-71
2021/05/26 11:47:54;;;;;;;1.73;1.63;;;;;;;16.08;26.44;100481.41;4962344;28;97483;-70